createdAt,value
2023-04-09T00:02:23.228Z,7.71
2023-04-09T00:07:14.247Z,7.61
2023-04-09T00:12:14.414Z,7.69
2023-04-09T00:17:08.063Z,7.75
2023-04-09T00:22:01.960Z,7.77
2023-04-09T00:26:54.433Z,7.94
2023-04-09T00:31:51.891Z,7.91
2023-04-09T00:36:46.074Z,8.10
2023-04-09T00:41:45.353Z,8.22
2023-04-09T00:46:39.832Z,8.28
2023-04-09T00:51:38.528Z,8.32
2023-04-09T00:56:29.807Z,8.38
2023-04-09T01:01:23.392Z,8.40
2023-04-09T01:06:15.622Z,8.45
2023-04-09T01:11:13.572Z,8.45
2023-04-09T01:16:09.877Z,8.51
2023-04-09T01:21:05.915Z,8.55
2023-04-09T01:26:07.585Z,8.61
2023-04-09T01:31:31.670Z,8.55
2023-04-09T01:36:23.071Z,8.59
2023-04-09T01:41:20.478Z,8.58
2023-04-09T01:46:12.730Z,8.60
2023-04-09T01:51:08.511Z,8.60
2023-04-09T01:55:59.766Z,8.60
2023-04-09T02:00:58.518Z,8.60
2023-04-09T02:05:56.568Z,8.62
2023-04-09T02:10:54.266Z,8.66
2023-04-09T02:15:50.590Z,8.59
2023-04-09T02:20:43.846Z,8.55
2023-04-09T02:25:35.528Z,8.55
2023-04-09T02:30:28.512Z,8.54
2023-04-09T02:35:19.669Z,8.56
2023-04-09T02:40:11.047Z,8.53
2023-04-09T02:45:03.205Z,8.48
2023-04-09T02:49:58.634Z,8.51
2023-04-09T02:54:51.212Z,8.52
2023-04-09T02:59:47.337Z,8.54
2023-04-09T03:04:39.063Z,8.53
2023-04-09T03:09:34.666Z,8.57
2023-04-09T03:14:25.628Z,8.55
2023-04-09T03:19:17.583Z,8.59
2023-04-09T03:24:11.879Z,8.58
2023-04-09T03:29:06.114Z,8.59
2023-04-09T03:33:58.658Z,8.62
2023-04-09T03:38:58.042Z,8.62
2023-04-09T03:43:54.170Z,8.64
2023-04-09T03:48:54.317Z,8.64
2023-04-09T03:53:48.304Z,8.57
2023-04-09T03:58:39.907Z,8.54
2023-04-09T04:03:36.419Z,8.50
2023-04-09T04:08:51.248Z,8.52
2023-04-09T04:13:48.179Z,8.56
2023-04-09T04:18:38.933Z,8.60
2023-04-09T04:23:29.418Z,8.65
2023-04-09T04:28:33.359Z,8.61
2023-04-09T04:33:31.461Z,8.65
2023-04-09T04:38:28.020Z,8.63
2023-04-09T04:43:30.204Z,8.60
2023-04-09T04:48:26.113Z,8.64
2023-04-09T04:53:19.910Z,8.66
2023-04-09T04:58:15.845Z,8.60
2023-04-09T05:03:20.112Z,8.57
2023-04-09T05:08:25.575Z,8.52
2023-04-09T05:13:19.334Z,8.47
2023-04-09T05:18:10.541Z,8.50
2023-04-09T05:23:03.701Z,8.53
2023-04-09T05:28:12.896Z,8.50
2023-04-09T05:33:16.164Z,8.49
2023-04-09T05:38:17.537Z,8.45
2023-04-09T05:43:17.238Z,8.47
2023-04-09T05:48:11.829Z,8.46
2023-04-09T05:53:04.408Z,8.42
2023-04-09T05:58:03.888Z,8.50
2023-04-09T06:02:57.610Z,8.35
2023-04-09T06:07:51.649Z,8.36
2023-04-09T06:12:42.779Z,8.45
2023-04-09T06:17:35.966Z,8.38
2023-04-09T06:22:33.896Z,8.41
2023-04-09T06:27:27.341Z,8.42
2023-04-09T06:32:17.800Z,8.39
2023-04-09T06:42:27.212Z,8.46
2023-04-09T06:47:45.888Z,8.47
2023-04-09T06:52:40.237Z,8.53
2023-04-09T06:57:35.514Z,8.69
2023-04-09T07:02:30.296Z,8.68
2023-04-09T07:07:25.855Z,8.75
2023-04-09T07:12:18.961Z,8.66
2023-04-09T07:17:13.175Z,8.65
2023-04-09T07:22:04.093Z,8.69
2023-04-09T07:26:54.794Z,8.74
2023-04-09T07:32:04.110Z,8.76
2023-04-09T07:36:58.918Z,8.78
2023-04-09T07:41:59.576Z,8.83
2023-04-09T07:46:54.077Z,8.91
2023-04-09T07:51:49.468Z,9.00
2023-04-09T07:56:45.945Z,9.20
2023-04-09T08:01:46.422Z,9.14
2023-04-09T08:06:38.349Z,9.24
2023-04-09T08:11:31.320Z,9.13
2023-04-09T08:16:24.739Z,9.08
2023-04-09T08:21:14.565Z,9.22
2023-04-09T08:26:04.140Z,9.27
2023-04-09T08:30:55.675Z,9.25
2023-04-09T08:35:51.655Z,9.32
2023-04-09T08:40:44.410Z,9.50
2023-04-09T08:45:34.895Z,9.60
2023-04-09T08:50:25.732Z,9.53
2023-04-09T08:55:21.607Z,9.57
2023-04-09T09:00:15.366Z,9.63
2023-04-09T09:05:05.893Z,9.83
2023-04-09T09:09:59.608Z,9.99
2023-04-09T09:14:52.169Z,10.03
2023-04-09T09:19:47.243Z,10.31
2023-04-09T09:24:52.956Z,10.45
2023-04-09T09:29:46.885Z,10.62
2023-04-09T09:34:44.483Z,11.07
2023-04-09T09:39:50.589Z,11.36
2023-04-09T09:44:49.677Z,11.28
2023-04-09T09:49:44.918Z,11.08
2023-04-09T09:54:46.398Z,11.19
2023-04-09T09:59:42.099Z,11.52
2023-04-09T10:04:39.030Z,12.10
2023-04-09T10:09:34.698Z,13.02
2023-04-09T10:14:26.694Z,13.57
2023-04-09T10:19:17.689Z,14.32
2023-04-09T10:24:12.973Z,14.88
2023-04-09T10:29:17.473Z,15.51
2023-04-09T10:34:12.941Z,15.51
2023-04-09T10:39:16.595Z,15.47
2023-04-09T10:44:26.732Z,15.24
2023-04-09T10:49:22.783Z,15.35
2023-04-09T10:54:44.399Z,15.60
2023-04-09T10:59:41.038Z,15.47
2023-04-09T11:04:46.222Z,15.70
2023-04-09T11:09:39.591Z,15.85
2023-04-09T11:14:37.088Z,15.85
2023-04-09T11:19:33.430Z,15.69
2023-04-09T11:24:23.625Z,15.78
2023-04-09T11:29:14.875Z,15.99
2023-04-09T11:34:05.259Z,16.15
2023-04-09T11:39:00.401Z,16.31
2023-04-09T11:43:55.381Z,16.10
2023-04-09T11:48:51.530Z,16.23
2023-04-09T11:53:45.323Z,16.19
2023-04-09T11:58:40.902Z,16.10
2023-04-09T12:03:34.940Z,15.88
2023-04-09T12:08:27.828Z,15.84
2023-04-09T12:13:19.289Z,15.93
2023-04-09T12:18:17.747Z,15.85
2023-04-09T12:23:15.263Z,15.93
2023-04-09T12:28:11.752Z,16.18
2023-04-09T12:33:10.282Z,16.03
2023-04-09T12:38:10.297Z,16.23
2023-04-09T12:43:03.947Z,16.49
2023-04-09T12:47:56.016Z,16.48
2023-04-09T12:52:50.707Z,16.59
2023-04-09T12:57:51.432Z,16.70
2023-04-09T13:02:47.239Z,16.57
2023-04-09T13:07:43.815Z,16.20
2023-04-09T13:12:38.268Z,16.15
2023-04-09T13:17:32.526Z,16.03
2023-04-09T13:22:24.600Z,15.89
2023-04-09T13:27:20.508Z,16.21
2023-04-09T13:32:14.527Z,16.15
2023-04-09T13:37:13.809Z,16.19
2023-04-09T13:42:13.679Z,16.21
2023-04-09T13:47:05.357Z,16.47
2023-04-09T13:51:57.427Z,16.45
2023-04-09T13:56:51.651Z,16.48
2023-04-09T14:01:47.948Z,16.67
2023-04-09T14:06:45.292Z,16.76
2023-04-09T14:11:39.537Z,16.81
2023-04-09T14:16:34.962Z,16.88
2023-04-09T14:21:27.318Z,16.97
2023-04-09T14:26:27.455Z,17.01
2023-04-09T14:31:21.731Z,17.12
2023-04-09T14:36:17.910Z,17.11
2023-04-09T14:41:09.578Z,17.20
2023-04-09T14:46:00.985Z,17.21
2023-04-09T14:51:03.362Z,17.29
2023-04-09T14:56:04.179Z,17.18
2023-04-09T15:00:59.019Z,17.17
2023-04-09T15:06:01.828Z,17.20
2023-04-09T15:16:26.237Z,17.19
2023-04-09T15:21:22.839Z,17.04
2023-04-09T15:26:18.578Z,17.08
2023-04-09T15:31:15.583Z,17.12
2023-04-09T15:36:07.926Z,17.02
2023-04-09T15:41:11.197Z,17.01
2023-04-09T15:46:12.254Z,17.08
2023-04-09T15:51:13.435Z,17.17
2023-04-09T15:56:14.334Z,17.03
2023-04-09T16:01:15.968Z,16.84
2023-04-09T16:06:20.027Z,16.72
2023-04-09T16:11:36.559Z,16.64
2023-04-09T16:16:33.754Z,16.62
2023-04-09T16:21:40.064Z,16.64
2023-04-09T16:32:14.122Z,16.62
2023-04-09T16:37:10.783Z,16.59
2023-04-09T16:42:05.156Z,16.52
2023-04-09T16:47:19.312Z,16.41
2023-04-09T16:52:11.464Z,16.39
2023-04-09T16:57:09.667Z,16.26
2023-04-09T17:02:07.515Z,16.13
2023-04-09T17:07:03.939Z,16.12
2023-04-09T17:11:55.801Z,15.98
2023-04-09T17:16:47.609Z,15.94
2023-04-09T17:21:44.506Z,15.81
2023-04-09T17:26:36.635Z,15.72
2023-04-09T17:31:30.350Z,15.61
2023-04-09T17:36:25.612Z,15.44
2023-04-09T17:41:21.960Z,15.36
2023-04-09T17:46:14.217Z,15.16
2023-04-09T17:51:19.252Z,15.49
2023-04-09T17:56:11.563Z,15.42
2023-04-09T18:01:12.474Z,15.02
2023-04-09T18:06:05.174Z,14.87
2023-04-09T18:11:11.525Z,14.72
2023-04-09T18:16:11.287Z,14.59
2023-04-09T18:21:02.936Z,14.41
2023-04-09T18:25:56.821Z,14.25
2023-04-09T18:30:47.358Z,14.06
2023-04-09T18:35:45.024Z,13.79
2023-04-09T18:40:49.660Z,13.60
2023-04-09T18:45:45.915Z,13.41
2023-04-09T18:50:40.140Z,13.32
2023-04-09T18:55:46.908Z,13.32
2023-04-09T19:00:41.176Z,13.02
2023-04-09T19:05:35.189Z,13.00
2023-04-09T19:10:26.418Z,12.75
2023-04-09T19:15:23.593Z,12.75
2023-04-09T19:20:25.176Z,12.58
2023-04-09T19:25:18.904Z,12.54
2023-04-09T19:30:14.972Z,12.53
2023-04-09T19:35:15.338Z,12.35
2023-04-09T19:40:06.734Z,12.28
2023-04-09T19:45:03.134Z,12.27
2023-04-09T19:50:10.479Z,12.21
2023-04-09T19:55:10.471Z,12.21
2023-04-09T20:00:02.902Z,12.05
2023-04-09T20:05:03.582Z,12.01
2023-04-09T20:09:58.908Z,11.98
2023-04-09T20:14:56.370Z,11.96
2023-04-09T20:19:50.047Z,11.94
2023-04-09T20:24:43.012Z,11.91
2023-04-09T20:29:35.896Z,11.91
2023-04-09T20:34:34.415Z,11.75
2023-04-09T20:39:29.299Z,10.96
2023-04-09T20:44:21.455Z,10.92
2023-04-09T20:49:19.962Z,10.99
2023-04-09T20:54:15.494Z,10.95
2023-04-09T20:59:07.130Z,10.95
2023-04-09T21:03:59.875Z,10.84
2023-04-09T21:08:59.708Z,11.03
2023-04-09T21:13:55.871Z,10.99
2023-04-09T21:18:47.373Z,11.02
2023-04-09T21:23:42.127Z,10.97
2023-04-09T21:28:46.210Z,10.94
2023-04-09T21:33:39.991Z,10.95
2023-04-09T21:38:31.246Z,10.86
2023-04-09T21:43:22.508Z,10.73
2023-04-09T21:48:13.981Z,10.57
2023-04-09T21:53:11.457Z,10.61
2023-04-09T21:58:03.767Z,10.59
2023-04-09T22:03:01.428Z,10.55
2023-04-09T22:07:52.593Z,10.42
2023-04-09T22:12:46.723Z,10.36
2023-04-09T22:17:39.327Z,10.24
2023-04-09T22:22:34.073Z,10.10
2023-04-09T22:27:29.592Z,10.20
2023-04-09T22:32:27.104Z,10.20
2023-04-09T22:37:18.342Z,10.14
2023-04-09T22:42:20.658Z,10.03
2023-04-09T22:47:13.608Z,9.94
2023-04-09T22:52:09.132Z,9.80
2023-04-09T22:57:01.003Z,9.82
2023-04-09T23:01:57.031Z,9.68
2023-04-09T23:06:51.938Z,9.71
2023-04-09T23:11:52.225Z,9.58
2023-04-09T23:16:43.147Z,9.58
2023-04-09T23:21:39.409Z,9.51
2023-04-09T23:26:31.249Z,9.45
2023-04-09T23:31:27.808Z,9.53
2023-04-09T23:36:24.755Z,9.70
2023-04-09T23:41:19.205Z,9.65
2023-04-09T23:46:13.494Z,9.54
2023-04-09T23:51:15.524Z,9.48
2023-04-09T23:56:09.654Z,9.42
